createdAt,value
2018-03-26T00:00:00.441Z,99.90
2018-03-26T00:02:01.466Z,99.90
2018-03-26T00:04:02.444Z,99.90
2018-03-26T00:06:03.436Z,99.90
2018-03-26T00:08:04.577Z,99.40
2018-03-26T00:10:06.275Z,97.30
2018-03-26T00:12:07.265Z,97.30
2018-03-26T00:14:08.276Z,97.10
2018-03-26T00:16:09.287Z,95.70
2018-03-26T00:18:11.008Z,93.70
2018-03-26T00:20:12.055Z,93.50
2018-03-26T00:22:13.069Z,94.00
2018-03-26T00:24:14.176Z,93.60
2018-03-26T00:26:15.213Z,93.80
2018-03-26T00:28:16.209Z,93.20
2018-03-26T00:30:17.172Z,93.10
2018-03-26T00:32:18.187Z,93.40
2018-03-26T00:34:19.877Z,94.10
2018-03-26T00:36:21.594Z,95.00
2018-03-26T00:38:22.598Z,95.00
2018-03-26T00:40:23.567Z,95.50
2018-03-26T00:42:24.556Z,95.80
2018-03-26T00:44:26.272Z,98.00
2018-03-26T00:46:27.243Z,98.00
2018-03-26T00:48:28.229Z,98.70
2018-03-26T00:50:29.237Z,98.30
2018-03-26T00:52:30.416Z,97.00
2018-03-26T00:54:31.434Z,96.60
2018-03-26T00:56:33.194Z,96.60
2018-03-26T00:58:34.189Z,96.30
2018-03-26T01:00:35.164Z,95.80
2018-03-26T01:02:36.182Z,95.50
2018-03-26T01:04:37.310Z,95.60
2018-03-26T01:06:39.298Z,95.40
2018-03-26T01:08:40.298Z,95.80
2018-03-26T01:10:41.307Z,96.50
2018-03-26T01:12:43.314Z,97.10
2018-03-26T01:14:44.268Z,97.30
2018-03-26T01:16:45.293Z,98.00
2018-03-26T01:18:46.337Z,98.60
2018-03-26T01:20:49.726Z,98.90
2018-03-26T01:22:50.709Z,99.20
2018-03-26T01:24:51.680Z,98.50
2018-03-26T01:26:53.453Z,97.70
2018-03-26T01:28:54.450Z,97.60
2018-03-26T01:30:55.418Z,97.60
2018-03-26T01:32:56.480Z,97.40
2018-03-26T01:34:58.187Z,96.90
2018-03-26T01:36:59.145Z,96.90
2018-03-26T01:39:00.213Z,97.10
2018-03-26T01:41:02.060Z,97.30
2018-03-26T01:43:03.031Z,97.20
2018-03-26T01:45:03.987Z,97.20
2018-03-26T01:47:05.696Z,97.50
2018-03-26T01:49:06.675Z,97.50
2018-03-26T01:51:07.950Z,97.40
2018-03-26T01:53:08.963Z,97.20
2018-03-26T01:55:10.665Z,97.90
2018-03-26T01:57:12.370Z,97.60
2018-03-26T01:59:13.361Z,97.60
2018-03-26T02:01:14.340Z,97.60
2018-03-26T02:03:15.287Z,97.60
2018-03-26T02:05:16.305Z,97.90
2018-03-26T02:07:17.291Z,98.00
2018-03-26T02:09:18.276Z,98.10
2018-03-26T02:11:19.242Z,98.00
2018-03-26T02:13:20.976Z,98.50
2018-03-26T02:15:22.046Z,98.20
2018-03-26T02:17:23.816Z,98.50
2018-03-26T02:19:24.799Z,98.50
2018-03-26T02:21:25.766Z,98.50
2018-03-26T02:23:26.773Z,98.30
2018-03-26T02:25:27.756Z,98.40
2018-03-26T02:27:28.714Z,98.60
2018-03-26T02:29:29.677Z,98.80
2018-03-26T02:31:30.619Z,99.00
2018-03-26T02:33:31.586Z,99.00
2018-03-26T02:35:32.603Z,99.20
2018-03-26T02:37:34.665Z,99.80
2018-03-26T02:39:35.708Z,99.90
2018-03-26T02:41:36.699Z,99.90
2018-03-26T02:43:37.740Z,99.90
2018-03-26T02:45:38.716Z,99.90
2018-03-26T02:47:39.678Z,99.90
2018-03-26T02:49:40.637Z,99.90
2018-03-26T02:51:41.620Z,99.90
2018-03-26T02:53:42.610Z,99.90
2018-03-26T02:55:43.585Z,99.90
2018-03-26T02:57:45.315Z,99.90
2018-03-26T02:59:46.301Z,99.90
2018-03-26T03:01:47.252Z,99.90
2018-03-26T03:03:48.228Z,99.90
2018-03-26T03:05:49.204Z,99.90
2018-03-26T03:07:50.169Z,99.90
2018-03-26T03:09:51.172Z,99.90
2018-03-26T03:11:52.137Z,99.90
2018-03-26T03:13:53.097Z,99.90
2018-03-26T03:15:54.078Z,99.90
2018-03-26T03:17:55.028Z,99.90
2018-03-26T03:19:56.020Z,99.90
2018-03-26T03:21:56.998Z,99.90
2018-03-26T03:23:58.065Z,99.90
2018-03-26T03:25:59.096Z,99.90
2018-03-26T03:28:00.142Z,99.90
2018-03-26T03:30:01.142Z,99.90
2018-03-26T03:32:02.932Z,99.90
2018-03-26T03:34:04.003Z,99.90
2018-03-26T03:36:04.957Z,99.90
2018-03-26T03:38:05.912Z,99.90
2018-03-26T03:40:06.867Z,99.90
2018-03-26T03:42:07.842Z,99.90
2018-03-26T03:44:08.817Z,99.90
2018-03-26T03:46:09.880Z,99.90
2018-03-26T03:48:10.849Z,99.90
2018-03-26T03:50:11.842Z,99.90
2018-03-26T03:52:12.836Z,99.90
2018-03-26T03:54:13.780Z,99.90
2018-03-26T03:56:14.797Z,99.90
2018-03-26T03:58:15.756Z,99.90
2018-03-26T04:00:16.800Z,99.90
2018-03-26T04:02:17.779Z,99.90
2018-03-26T04:04:18.780Z,99.90
2018-03-26T04:06:19.824Z,99.90
2018-03-26T04:08:20.891Z,99.90
2018-03-26T04:10:21.881Z,99.90
2018-03-26T04:12:22.891Z,99.90
2018-03-26T04:14:23.888Z,99.90
2018-03-26T04:16:25.598Z,99.90
2018-03-26T04:18:26.573Z,99.90
2018-03-26T04:20:27.565Z,99.90
2018-03-26T04:22:28.541Z,99.90
2018-03-26T04:24:29.518Z,99.90
2018-03-26T04:26:30.464Z,99.90
2018-03-26T04:28:31.436Z,99.90
2018-03-26T04:30:33.135Z,99.90
2018-03-26T04:32:34.091Z,99.90
2018-03-26T04:34:35.061Z,99.90
2018-03-26T04:36:36.042Z,99.90
2018-03-26T04:38:37.015Z,99.90
2018-03-26T04:40:37.974Z,99.90
2018-03-26T04:42:38.920Z,99.90
2018-03-26T04:44:39.926Z,99.90
2018-03-26T04:46:40.886Z,99.90
2018-03-26T04:48:41.916Z,99.90
2018-03-26T04:50:42.869Z,99.90
2018-03-26T04:52:43.836Z,99.90
2018-03-26T04:54:44.783Z,99.90
2018-03-26T04:56:45.770Z,99.90
2018-03-26T04:58:46.716Z,99.90
2018-03-26T05:00:47.679Z,99.90
2018-03-26T05:02:49.379Z,99.90
2018-03-26T05:04:50.428Z,99.90
2018-03-26T05:06:51.390Z,99.90
2018-03-26T05:08:52.353Z,99.90
2018-03-26T05:10:53.362Z,99.90
2018-03-26T05:12:54.557Z,99.90
2018-03-26T05:14:55.531Z,99.90
2018-03-26T05:16:57.298Z,99.90
2018-03-26T05:18:58.269Z,99.90
2018-03-26T05:20:59.282Z,99.90
2018-03-26T05:23:01.001Z,99.90
2018-03-26T05:25:02.026Z,99.90
2018-03-26T05:27:03.044Z,99.90
2018-03-26T05:29:04.092Z,99.90
2018-03-26T05:31:05.143Z,99.90
2018-03-26T05:33:06.047Z,99.90
2018-03-26T05:35:07.005Z,99.90
2018-03-26T05:37:07.981Z,99.90
2018-03-26T05:39:09.680Z,99.90
2018-03-26T05:41:10.637Z,99.90
2018-03-26T05:43:11.587Z,99.90
2018-03-26T05:45:12.617Z,99.90
2018-03-26T05:47:13.591Z,99.90
2018-03-26T05:49:14.570Z,99.90
2018-03-26T05:51:16.320Z,99.90
2018-03-26T05:53:18.034Z,99.90
2018-03-26T05:55:19.009Z,99.90
2018-03-26T05:57:19.968Z,99.90
2018-03-26T05:59:20.936Z,99.90
2018-03-26T06:01:22.640Z,99.90
2018-03-26T06:03:23.648Z,99.90
2018-03-26T06:05:25.346Z,99.90
2018-03-26T06:07:26.339Z,99.90
2018-03-26T06:09:28.105Z,99.90
2018-03-26T06:11:29.799Z,99.90
2018-03-26T06:13:30.781Z,99.90
2018-03-26T06:15:31.826Z,99.90
2018-03-26T06:17:33.471Z,99.90
2018-03-26T06:19:34.492Z,99.90
2018-03-26T06:21:35.476Z,99.90
2018-03-26T06:23:36.428Z,99.90
2018-03-26T06:25:37.566Z,99.90
2018-03-26T06:27:38.617Z,99.90
2018-03-26T06:29:39.621Z,99.90
2018-03-26T06:31:41.366Z,99.90
2018-03-26T06:33:42.336Z,99.90
2018-03-26T06:35:44.031Z,99.90
2018-03-26T06:37:45.956Z,99.90
2018-03-26T06:39:47.667Z,99.90
2018-03-26T06:41:48.687Z,99.90
2018-03-26T06:43:49.772Z,99.90
2018-03-26T06:45:50.738Z,99.90
2018-03-26T06:47:51.699Z,99.90
2018-03-26T06:49:52.674Z,99.90
2018-03-26T06:51:54.347Z,99.90
2018-03-26T06:53:55.329Z,99.90
2018-03-26T06:55:56.302Z,99.90
2018-03-26T06:57:57.247Z,99.90
2018-03-26T06:59:58.199Z,99.90
2018-03-26T07:01:59.171Z,99.90
2018-03-26T07:04:00.153Z,99.90
2018-03-26T07:06:01.112Z,99.90
2018-03-26T07:08:02.072Z,99.90
2018-03-26T07:10:03.085Z,99.90
2018-03-26T07:12:04.041Z,99.90
2018-03-26T07:14:05.005Z,99.90
2018-03-26T07:16:05.989Z,99.90
2018-03-26T07:18:06.951Z,99.90
2018-03-26T07:20:07.907Z,99.90
2018-03-26T07:22:08.925Z,99.90
2018-03-26T07:24:09.932Z,99.90
2018-03-26T07:26:10.900Z,99.90
2018-03-26T07:28:12.595Z,99.90
2018-03-26T07:30:13.575Z,99.90
2018-03-26T07:32:14.607Z,99.90
2018-03-26T07:34:15.576Z,99.90
2018-03-26T07:36:16.564Z,99.90
2018-03-26T07:38:17.541Z,99.90
2018-03-26T07:40:18.512Z,99.90
2018-03-26T07:42:19.468Z,99.90
2018-03-26T07:44:20.467Z,99.90
2018-03-26T07:46:21.426Z,99.90
2018-03-26T07:48:23.107Z,99.00
2018-03-26T07:50:24.061Z,98.90
2018-03-26T07:52:25.042Z,99.30
2018-03-26T07:54:26.790Z,97.30
2018-03-26T07:56:28.588Z,97.70
2018-03-26T07:58:29.572Z,97.60
2018-03-26T08:00:30.645Z,97.20
2018-03-26T08:02:31.700Z,96.90
2018-03-26T08:04:32.656Z,96.40
2018-03-26T08:06:34.448Z,95.30
2018-03-26T08:08:35.437Z,95.30
2018-03-26T08:10:36.411Z,95.80
2018-03-26T08:12:37.397Z,95.90
2018-03-26T08:14:38.343Z,95.50
2018-03-26T08:16:39.770Z,94.80
2018-03-26T08:18:40.731Z,95.50
2018-03-26T08:20:41.723Z,94.40
2018-03-26T08:22:43.453Z,96.00
2018-03-26T08:24:44.476Z,95.90
2018-03-26T08:26:46.185Z,96.50
2018-03-26T08:28:47.176Z,96.50
2018-03-26T08:30:48.933Z,95.70
2018-03-26T08:32:50.635Z,94.50
2018-03-26T08:34:51.637Z,94.50
2018-03-26T08:36:52.606Z,95.10
2018-03-26T08:38:54.381Z,92.80
2018-03-26T08:40:55.692Z,92.80
2018-03-26T08:42:56.694Z,94.60
2018-03-26T08:44:57.684Z,92.70
2018-03-26T08:46:58.668Z,92.60
2018-03-26T08:49:00.380Z,90.10
2018-03-26T08:51:01.457Z,90.10
2018-03-26T08:53:02.439Z,89.50
2018-03-26T08:55:03.462Z,87.10
2018-03-26T08:57:05.162Z,87.50
2018-03-26T08:59:06.134Z,87.50
2018-03-26T09:01:07.101Z,88.00
2018-03-26T09:03:08.110Z,86.30
2018-03-26T09:05:09.192Z,89.00
2018-03-26T09:07:10.191Z,88.70
2018-03-26T09:09:11.183Z,89.20
2018-03-26T09:11:12.236Z,89.20
2018-03-26T09:13:13.274Z,91.70
2018-03-26T09:15:14.354Z,91.30
2018-03-26T09:17:16.151Z,89.20
2018-03-26T09:19:17.120Z,89.20
2018-03-26T09:21:18.086Z,85.70
2018-03-26T09:23:19.039Z,83.00
2018-03-26T09:25:20.017Z,76.40
2018-03-26T09:27:21.717Z,74.10
2018-03-26T09:29:22.679Z,73.80
2018-03-26T09:31:23.778Z,74.00
2018-03-26T09:33:24.848Z,76.10
2018-03-26T09:35:25.790Z,73.20
2018-03-26T09:37:26.765Z,72.90
2018-03-26T09:39:27.721Z,73.90
2018-03-26T09:41:28.701Z,72.90
2018-03-26T09:43:30.420Z,77.20
2018-03-26T09:45:31.429Z,77.20
2018-03-26T09:47:32.397Z,73.00
2018-03-26T09:49:33.382Z,74.20
2018-03-26T09:51:34.534Z,73.70
2018-03-26T09:53:36.238Z,70.90
2018-03-26T09:55:37.202Z,70.30
2018-03-26T09:57:38.160Z,67.80
2018-03-26T09:59:40.217Z,61.70
2018-03-26T10:01:47.646Z,58.10
2018-03-26T10:03:49.205Z,61.30
2018-03-26T10:05:50.239Z,59.80
2018-03-26T10:07:51.252Z,57.20
2018-03-26T10:09:52.232Z,57.40
2018-03-26T10:11:53.233Z,56.80
2018-03-26T10:13:54.223Z,59.20
2018-03-26T10:15:55.215Z,61.10
2018-03-26T10:17:56.222Z,61.40
2018-03-26T10:19:57.199Z,60.90
2018-03-26T10:21:58.942Z,64.90
2018-03-26T10:23:59.944Z,65.00
2018-03-26T10:26:02.876Z,60.90
2018-03-26T10:28:03.865Z,60.90
2018-03-26T10:30:05.610Z,60.60
2018-03-26T10:32:07.377Z,59.50
2018-03-26T10:34:08.373Z,59.00
2018-03-26T10:36:09.542Z,64.80
2018-03-26T10:38:10.566Z,67.90
2018-03-26T10:40:12.949Z,64.90
2018-03-26T10:42:13.982Z,64.80
2018-03-26T10:44:14.933Z,61.70
2018-03-26T10:46:15.912Z,64.20
2018-03-26T10:48:17.056Z,68.60
2018-03-26T10:50:18.162Z,62.80
2018-03-26T10:52:19.308Z,58.50
2018-03-26T10:54:20.261Z,56.20
2018-03-26T10:56:21.286Z,58.40
2018-03-26T10:58:23.047Z,64.20
2018-03-26T11:00:24.746Z,65.20
2018-03-26T11:02:25.693Z,65.40
2018-03-26T11:04:26.698Z,64.20
2018-03-26T11:06:28.409Z,70.80
2018-03-26T11:08:29.468Z,69.80
2018-03-26T11:10:30.429Z,69.50
2018-03-26T11:12:31.437Z,70.50
2018-03-26T11:14:32.450Z,70.10
2018-03-26T11:16:33.409Z,70.20
2018-03-26T11:18:35.155Z,73.40
2018-03-26T11:20:36.175Z,73.30
2018-03-26T11:22:37.182Z,72.80
2018-03-26T11:24:38.241Z,72.60
2018-03-26T11:26:39.224Z,75.40
2018-03-26T11:28:40.239Z,72.70
2018-03-26T11:30:41.233Z,71.70
2018-03-26T11:32:42.219Z,72.00
2018-03-26T11:34:43.188Z,73.50
2018-03-26T11:36:46.132Z,70.40
2018-03-26T11:38:47.100Z,67.10
2018-03-26T11:40:48.074Z,68.70
2018-03-26T11:42:49.117Z,65.80
2018-03-26T11:44:50.104Z,65.30
2018-03-26T11:46:51.217Z,66.20
2018-03-26T11:48:52.356Z,68.40
2018-03-26T11:50:53.338Z,64.70
2018-03-26T11:52:54.308Z,71.30
2018-03-26T11:54:55.263Z,68.80
2018-03-26T11:56:56.982Z,68.70
2018-03-26T11:58:57.989Z,68.50
2018-03-26T12:00:59.026Z,70.70
2018-03-26T12:03:00.018Z,69.90
2018-03-26T12:05:00.984Z,68.20
2018-03-26T12:07:01.984Z,71.40
2018-03-26T12:09:02.968Z,72.30
2018-03-26T12:11:04.016Z,72.50
2018-03-26T12:13:05.096Z,73.90
2018-03-26T12:15:05.975Z,75.10
2018-03-26T12:17:06.932Z,77.40
2018-03-26T12:19:07.984Z,78.60
2018-03-26T12:21:09.004Z,77.60
2018-03-26T12:23:22.361Z,76.40
2018-03-26T12:25:23.401Z,79.00
2018-03-26T12:27:25.098Z,78.40
2018-03-26T12:29:38.467Z,78.50
2018-03-26T12:31:39.677Z,79.90
2018-03-26T12:33:52.968Z,82.00
2018-03-26T12:35:54.709Z,81.00
2018-03-26T12:37:55.708Z,80.90
2018-03-26T12:39:56.741Z,82.20
2018-03-26T12:41:57.680Z,82.20
2018-03-26T12:43:58.665Z,79.20
2018-03-26T12:46:12.056Z,81.90
2018-03-26T12:48:13.872Z,76.30
2018-03-26T12:50:15.572Z,75.60
2018-03-26T12:52:28.956Z,75.70
2018-03-26T12:54:29.929Z,73.60
2018-03-26T12:56:30.917Z,76.60
2018-03-26T12:58:48.356Z,77.50
2018-03-26T13:01:01.988Z,77.50
2018-03-26T13:03:03.210Z,71.80
2018-03-26T13:05:04.189Z,71.40
2018-03-26T13:07:05.880Z,76.20
2018-03-26T13:09:06.872Z,76.30
2018-03-26T13:11:07.830Z,75.90
2018-03-26T13:13:09.593Z,75.90
2018-03-26T13:15:11.616Z,77.20
2018-03-26T13:17:12.668Z,78.70
2018-03-26T13:19:13.708Z,77.30
2018-03-26T13:21:14.669Z,75.50
2018-03-26T13:23:15.668Z,78.10
2018-03-26T13:25:16.679Z,76.40
2018-03-26T13:27:17.792Z,74.40
2018-03-26T13:29:18.798Z,76.00
2018-03-26T13:31:19.745Z,77.40
2018-03-26T13:33:21.492Z,76.60
2018-03-26T13:35:22.465Z,75.80
2018-03-26T13:37:23.449Z,76.30
2018-03-26T13:39:25.170Z,77.40
2018-03-26T13:41:26.874Z,74.10
2018-03-26T13:43:27.916Z,74.10
2018-03-26T13:45:28.865Z,81.10
2018-03-26T13:47:29.848Z,82.10
2018-03-26T13:49:30.987Z,77.30
2018-03-26T13:51:31.959Z,75.70
2018-03-26T13:53:32.980Z,77.70
2018-03-26T13:55:33.960Z,78.30
2018-03-26T13:57:35.692Z,76.70
2018-03-26T13:59:36.694Z,76.70
2018-03-26T14:01:37.739Z,76.80
2018-03-26T14:03:38.716Z,74.80
2018-03-26T14:05:39.815Z,72.50
2018-03-26T14:07:41.518Z,77.40
2018-03-26T14:09:54.741Z,77.40
2018-03-26T14:12:08.223Z,76.30
2018-03-26T14:14:21.710Z,75.00
2018-03-26T14:16:35.201Z,77.20
2018-03-26T14:18:36.229Z,75.10
2018-03-26T14:20:37.222Z,75.70
2018-03-26T14:22:38.236Z,76.80
2018-03-26T14:24:39.232Z,77.20
2018-03-26T14:26:41.012Z,81.10
2018-03-26T14:28:42.189Z,81.20
2018-03-26T14:30:43.166Z,81.10
2018-03-26T14:32:44.207Z,78.10
2018-03-26T14:34:53.491Z,81.20
2018-03-26T14:36:54.499Z,83.00
2018-03-26T14:38:55.489Z,81.20
2018-03-26T14:40:56.474Z,81.20
2018-03-26T14:42:57.436Z,79.80
2018-03-26T14:44:58.523Z,82.20
2018-03-26T14:47:00.269Z,79.40
2018-03-26T14:49:01.992Z,79.10
2018-03-26T14:51:03.016Z,79.00
2018-03-26T14:53:04.025Z,79.90
2018-03-26T14:55:05.022Z,79.20
2018-03-26T14:57:06.065Z,75.80
2018-03-26T14:59:07.021Z,77.40
2018-03-26T15:01:08.078Z,78.00
2018-03-26T15:03:09.102Z,79.00
2018-03-26T15:05:10.077Z,79.60
2018-03-26T15:07:11.084Z,79.80
2018-03-26T15:09:12.068Z,78.20
2018-03-26T15:11:13.052Z,79.60
2018-03-26T15:13:14.784Z,77.80
2018-03-26T15:15:15.778Z,77.70
2018-03-26T15:17:17.541Z,79.30
2018-03-26T15:19:18.568Z,77.70
2018-03-26T15:21:20.319Z,78.90
2018-03-26T15:23:21.315Z,79.00
2018-03-26T15:25:22.334Z,77.60
2018-03-26T15:27:23.432Z,76.40
2018-03-26T15:29:24.367Z,75.30
2018-03-26T15:31:25.570Z,79.20
2018-03-26T15:33:26.529Z,79.60
2018-03-26T15:35:27.499Z,81.10
2018-03-26T15:37:28.493Z,82.30
2018-03-26T15:39:29.510Z,81.00
2018-03-26T15:41:30.547Z,81.60
2018-03-26T15:43:31.587Z,82.60
2018-03-26T15:45:32.585Z,82.60
2018-03-26T15:47:33.652Z,83.00
2018-03-26T15:49:34.639Z,84.60
2018-03-26T15:51:35.652Z,84.60
2018-03-26T15:53:36.668Z,83.30
2018-03-26T15:55:37.664Z,83.50
2018-03-26T15:57:38.652Z,82.90
2018-03-26T15:59:39.831Z,79.70
2018-03-26T16:01:41.653Z,82.50
2018-03-26T16:03:42.827Z,82.50
2018-03-26T16:05:43.898Z,83.70
2018-03-26T16:07:44.858Z,80.70
2018-03-26T16:09:45.870Z,81.60
2018-03-26T16:11:47.476Z,82.20
2018-03-26T16:13:48.448Z,82.00
2018-03-26T16:15:49.420Z,82.40
2018-03-26T16:17:50.406Z,82.00
2018-03-26T16:19:52.128Z,87.90
2018-03-26T16:21:53.105Z,87.80
2018-03-26T16:23:54.086Z,86.80
2018-03-26T16:25:55.808Z,88.20
2018-03-26T16:27:56.784Z,89.00
2018-03-26T16:29:57.810Z,85.10
2018-03-26T16:31:59.536Z,86.10
2018-03-26T16:34:00.585Z,86.20
2018-03-26T16:36:01.564Z,85.00
2018-03-26T16:38:02.554Z,82.50
2018-03-26T16:40:03.534Z,83.60
2018-03-26T16:42:16.909Z,80.90
2018-03-26T16:44:18.622Z,81.00
2018-03-26T16:46:20.555Z,81.00
2018-03-26T16:48:21.524Z,82.70
2018-03-26T16:50:22.481Z,81.20
2018-03-26T16:52:23.472Z,79.60
2018-03-26T16:54:25.195Z,81.10
2018-03-26T16:56:26.287Z,81.10
2018-03-26T16:58:27.431Z,81.10
2018-03-26T17:00:28.547Z,81.00
2018-03-26T17:02:29.543Z,83.20
2018-03-26T17:04:30.539Z,83.80
2018-03-26T17:06:31.500Z,85.30
2018-03-26T17:08:32.464Z,85.30
2018-03-26T17:10:34.166Z,89.50
2018-03-26T17:12:35.157Z,89.50
2018-03-26T17:14:36.148Z,89.40
2018-03-26T17:16:37.153Z,91.10
2018-03-26T17:18:38.157Z,92.30
2018-03-26T17:20:39.921Z,92.40
2018-03-26T17:22:40.930Z,92.40
2018-03-26T17:24:42.660Z,94.10
2018-03-26T17:26:43.697Z,94.10
2018-03-26T17:28:44.729Z,94.40
2018-03-26T17:30:45.708Z,94.40
2018-03-26T17:32:46.771Z,94.20
2018-03-26T17:34:47.733Z,94.60
2018-03-26T17:36:48.689Z,95.30
2018-03-26T17:38:50.436Z,95.80
2018-03-26T17:40:51.396Z,95.80
2018-03-26T17:42:53.223Z,95.90
2018-03-26T17:44:54.216Z,95.90
2018-03-26T17:46:55.198Z,96.40
2018-03-26T17:48:56.182Z,96.30
2018-03-26T17:50:57.152Z,96.50
2018-03-26T17:52:58.160Z,97.20
2018-03-26T17:54:59.157Z,97.20
2018-03-26T17:57:00.334Z,97.40
2018-03-26T17:59:01.333Z,97.80
2018-03-26T18:01:03.102Z,97.60
2018-03-26T18:03:04.818Z,97.90
2018-03-26T18:05:05.850Z,97.90
2018-03-26T18:07:06.861Z,97.90
2018-03-26T18:09:07.845Z,97.70
2018-03-26T18:11:08.844Z,98.00
2018-03-26T18:13:10.569Z,98.20
2018-03-26T18:15:12.547Z,98.20
2018-03-26T18:17:13.538Z,98.10
2018-03-26T18:19:14.534Z,98.50
2018-03-26T18:21:15.627Z,98.40
2018-03-26T18:23:16.569Z,98.80
2018-03-26T18:25:17.632Z,99.00
2018-03-26T18:27:18.626Z,98.70
2018-03-26T18:29:19.612Z,98.50
2018-03-26T18:31:20.635Z,98.20
2018-03-26T18:33:21.588Z,99.50
2018-03-26T18:35:23.364Z,99.30
2018-03-26T18:37:24.322Z,99.40
2018-03-26T18:39:25.321Z,99.00
2018-03-26T18:41:26.398Z,99.90
2018-03-26T18:43:28.159Z,99.40
2018-03-26T18:45:29.900Z,98.90
2018-03-26T18:47:30.972Z,98.90
2018-03-26T18:49:32.718Z,99.00
2018-03-26T18:51:33.729Z,99.00
2018-03-26T18:53:34.713Z,99.30
2018-03-26T18:55:35.705Z,99.50
2018-03-26T18:57:36.700Z,99.50
2018-03-26T18:59:37.706Z,99.90
2018-03-26T19:01:38.744Z,99.90
2018-03-26T19:03:39.718Z,99.90
2018-03-26T19:05:40.748Z,99.90
2018-03-26T19:07:41.733Z,99.90
2018-03-26T19:09:42.720Z,99.90
2018-03-26T19:11:43.729Z,99.90
2018-03-26T19:13:44.751Z,99.90
2018-03-26T19:15:45.784Z,99.90
2018-03-26T19:17:46.780Z,99.90
2018-03-26T19:19:47.780Z,99.90
2018-03-26T19:21:48.805Z,99.90
2018-03-26T19:23:49.820Z,99.90
2018-03-26T19:25:50.784Z,99.90
2018-03-26T19:27:51.772Z,99.90
2018-03-26T19:29:59.764Z,99.90
2018-03-26T19:32:03.984Z,99.90
2018-03-26T19:34:10.262Z,99.90
2018-03-26T19:36:18.458Z,99.90
2018-03-26T19:38:26.590Z,99.90
2018-03-26T19:42:59.035Z,99.90
2018-03-26T19:45:00.080Z,99.90
2018-03-26T19:47:01.164Z,99.90
2018-03-26T19:49:02.199Z,99.90
2018-03-26T19:51:03.212Z,99.90
2018-03-26T19:53:04.223Z,99.90
2018-03-26T19:55:05.976Z,99.90
2018-03-26T19:57:07.038Z,99.90
2018-03-26T19:59:08.073Z,99.90
2018-03-26T20:01:09.809Z,99.90
2018-03-26T20:03:10.804Z,99.90
2018-03-26T20:05:12.588Z,99.90
2018-03-26T20:07:13.765Z,99.90
2018-03-26T20:09:14.753Z,99.90
2018-03-26T20:11:16.532Z,99.90
2018-03-26T20:13:17.584Z,99.90
2018-03-26T20:15:18.640Z,99.90
2018-03-26T20:17:20.378Z,99.90
2018-03-26T20:19:22.149Z,99.90
2018-03-26T20:21:23.160Z,99.90
2018-03-26T20:23:24.143Z,99.90
2018-03-26T20:25:25.968Z,99.90
2018-03-26T20:27:26.991Z,99.90
2018-03-26T20:29:28.036Z,99.90
2018-03-26T20:31:29.048Z,99.90
2018-03-26T20:33:30.801Z,99.90
2018-03-26T20:35:32.444Z,99.90
2018-03-26T20:37:33.516Z,99.90
2018-03-26T20:39:34.556Z,99.90
2018-03-26T20:41:36.270Z,99.90
2018-03-26T20:43:37.254Z,99.90
2018-03-26T20:45:38.253Z,99.90
2018-03-26T20:47:39.259Z,99.90
2018-03-26T20:49:40.239Z,99.90
2018-03-26T20:51:41.202Z,99.90
2018-03-26T20:53:42.917Z,99.90
2018-03-26T20:55:43.958Z,99.90
2018-03-26T20:57:44.930Z,99.90
2018-03-26T20:59:46.082Z,99.90
2018-03-26T21:01:47.078Z,99.90
2018-03-26T21:03:48.068Z,99.90
2018-03-26T21:05:49.042Z,99.90
2018-03-26T21:07:50.016Z,99.90
2018-03-26T21:09:51.005Z,99.90
2018-03-26T21:11:52.027Z,99.90
2018-03-26T21:13:53.038Z,99.90
2018-03-26T21:15:54.066Z,99.90
2018-03-26T21:17:55.142Z,99.90
2018-03-26T21:19:56.172Z,99.90
2018-03-26T21:21:57.229Z,99.90
2018-03-26T21:23:58.220Z,99.90
2018-03-26T21:25:59.345Z,99.90
2018-03-26T21:28:00.337Z,99.90
2018-03-26T21:30:02.341Z,99.90
2018-03-26T21:32:03.407Z,99.90
2018-03-26T21:34:04.414Z,99.90
2018-03-26T21:36:05.516Z,99.90
2018-03-26T21:38:06.661Z,99.90
2018-03-26T21:40:07.688Z,99.90
2018-03-26T21:42:08.787Z,99.90
2018-03-26T21:44:09.915Z,99.90
2018-03-26T21:46:10.978Z,99.90
2018-03-26T21:48:13.141Z,99.90
2018-03-26T21:50:14.362Z,99.90
2018-03-26T21:52:15.473Z,99.90
2018-03-26T21:54:17.489Z,99.90
2018-03-26T21:56:18.686Z,99.90
2018-03-26T21:58:19.767Z,99.90
2018-03-26T22:00:20.907Z,99.90
2018-03-26T22:02:21.985Z,99.90
2018-03-26T22:04:23.133Z,99.90
2018-03-26T22:06:24.288Z,99.90
2018-03-26T22:08:25.387Z,99.90
2018-03-26T22:10:27.300Z,99.90
2018-03-26T22:12:28.360Z,99.90
2018-03-26T22:14:29.421Z,99.90
2018-03-26T22:16:30.497Z,99.90
2018-03-26T22:18:32.351Z,99.90
2018-03-26T22:20:33.419Z,99.90
2018-03-26T22:22:34.573Z,99.90
2018-03-26T22:24:36.444Z,99.90
2018-03-26T22:26:38.268Z,99.90
2018-03-26T22:28:39.534Z,99.90
2018-03-26T22:30:40.564Z,99.90
2018-03-26T22:32:41.572Z,99.90
2018-03-26T22:34:42.583Z,99.90
2018-03-26T22:36:43.577Z,99.90
2018-03-26T22:38:44.768Z,99.90
2018-03-26T22:40:45.788Z,99.90
2018-03-26T22:42:46.866Z,99.90
2018-03-26T22:44:48.049Z,99.90
2018-03-26T22:46:49.126Z,99.90
2018-03-26T22:48:50.331Z,99.90
2018-03-26T22:50:51.649Z,99.90
2018-03-26T22:52:52.688Z,99.90
2018-03-26T22:54:53.707Z,99.90
2018-03-26T22:56:54.829Z,99.90
2018-03-26T22:58:55.825Z,99.90
2018-03-26T23:00:56.953Z,99.90
2018-03-26T23:02:57.978Z,99.90
2018-03-26T23:04:59.771Z,99.90
2018-03-26T23:07:00.811Z,99.90
2018-03-26T23:09:01.780Z,99.90
2018-03-26T23:11:02.914Z,99.90
2018-03-26T23:13:03.914Z,99.90
2018-03-26T23:15:09.600Z,99.90
2018-03-26T23:17:10.635Z,99.90
2018-03-26T23:19:11.636Z,99.90
2018-03-26T23:21:12.628Z,99.90
2018-03-26T23:23:14.361Z,99.90
2018-03-26T23:25:15.428Z,99.90
2018-03-26T23:27:16.467Z,99.90
2018-03-26T23:29:17.483Z,99.90
2018-03-26T23:31:18.588Z,99.90
2018-03-26T23:33:19.617Z,99.90
2018-03-26T23:35:20.643Z,99.90
2018-03-26T23:37:21.644Z,99.90
2018-03-26T23:39:22.640Z,99.90
2018-03-26T23:41:23.650Z,99.90
2018-03-26T23:43:24.665Z,99.90
2018-03-26T23:45:25.729Z,99.90
2018-03-26T23:47:27.612Z,99.90
2018-03-26T23:49:28.621Z,99.90
2018-03-26T23:51:29.645Z,99.90
2018-03-26T23:53:30.725Z,99.90
2018-03-26T23:55:31.720Z,99.90
2018-03-26T23:57:32.758Z,99.90
2018-03-26T23:59:33.744Z,99.90
